< < Back
Terminal Aerodrome Forecast


Current Version              Previous Versions:   1  2  3  4  5  6  7  8  9  

Terminal Aerodrome Forecast

116
FTUS42 KMLB 272113 AAA
TAFMCO
TAF AMD
KMCO 272113Z 2721/2818 01011KT P6SM SCT018 OVC025
     FM280300 01010KT P6SM OVC012
     FM281500 05014G20KT P6SM VCSH OVC018=



Latest METAR

319
SAUS70 KWBC 280000 RRF
MTRMCO
METAR KMCO 272353Z 02014KT 10SM OVC015 13/10 A3024 RMK AO2 SLP238 60000
T01330100 10139 20128 53010


USA.gov is the U.S. government's official web portal to all federal, state and local government web resources and services.